Lake Elsinore, CA (92532)

4:22 PM PST en Febrero 23, 2018 (GMT -0800)
Sunrise Springs | | Change Station
Aviso en curso: Freeze Warning

Alt 1263 ft 33.65 °N, 117.30 °W | Updated 1 second ago

Despejado
Despejado
57.9 ° F
Sensación térmica 57.9 ° F
N
1.1
Viento Variable Viento desde SO
Gusts 2.5 mph

Hoy
Alta -- | Baja -- ° F
--% Posibilidad de precipitaciones
Ayer
Alta -- | Baja -- ° F
Precip. -- pul
Presión 30.13 pul
Visibilidad 10.0 Millas
Nubes Despejado
Punto de rocío 31 ° F
Humedad 36%
Precipitaciones 0.00 pul
Espesor de la nieve No disponible.
6:24 AM 5:40 PM
Cuarto creciente, 58% visible
METAR KF70 240015Z AUTO 27003KT 10SM CLR 13/M10 A3013 RMK AO1
Presión 30.13 pul
Visibilidad 10.0 Millas
Nubes Despejado
Punto de rocío 31 ° F
Humedad 36%
Precipitaciones 0.00 pul
Espesor de la nieve No disponible.
6:24 AM 5:40 PM
Cuarto creciente, 58% visible
METAR KF70 240015Z AUTO 27003KT 10SM CLR 13/M10 A3013 RMK AO1

Get Your Daily Forecast Email!

Thanks for signing up!

Be on the lookout for a verification email in your inbox.

You'll start receiving severe weather alerts in your inbox..

×

10-Day Weather Forecast

Almanac

Astronomía

Feb. 23, 2018 Salida Puesta
Hora real
Crepúsculo civil
Crepúsculo náutico
Crepúsculo astronómico
Luna
Horas de luz
Horas de luz
Tomorrow will be .
, % of the Moon is Illuminated

Extremos de hoy

Máximos del estado Bajos del estado

Community

WunderPhotos

Category 6

Welcome to Category 6. This is the collective home for Weather Underground's featured writeups by Dr. Jeff Masters (right), Bob Henson (left), Chris Burt, and other regular contributors.

Nearby

Calidad del aire

  Calidad del aire Índice AQ Contaminante
Not available.

Grosos de nieve

Estación Profundido Altura

Actividad de terremotos

Ciudad Distance Mag. Tiempo y dato
Magnitud mínima muestra es 2,5.

Temperaturas de aguas costeras

Lugar Temperatura

Stations

Estaciones meteorológicas cercanas

Ubicación de la estación Temp. Vientos helados Punto de rocío Humedad Viento Precip. Alt Actualizado Tipo
                   

Watches & Warnings

Freeze Warning
Issued: 1:04 PM PST Feb. 23, 2018 – National Weather Service

... Freeze warning in effect from 10 PM this evening to 8 am PST
Saturday...

The National Weather Service in San Diego has issued a freeze
warning... which is in effect from 10 PM this evening to 8 am PST
Saturday.

* Location... most of the inland Empire.

* Duration... several hours of temperatures below freezing.

* Temperature... 28 to 32 degrees.

* Impacts... plants and other sensitive vegetation may be killed if
left unprotected. Sub freezing temperatures can harm outdoor
pets and livestock.

Precautionary/preparedness actions...

A freeze warning means sub-freezing temperatures are imminent or
highly likely. These conditions will kill crops and other
sensitive vegetation.